.
WxDataArchive / Data Records for 2015-12-13
2015-12-12 December 2015 2015-12-14

Data Records for Sunday, 13 December 2015

Time	Temp	Chill	HIndex	Humid	Dewpt	 Wind 	HiWind	WindDir	Rain 	Barom
-----	----	-----	------	-----	-----	------	------	-------	-----	-----
00:00	62.1	62.1	62.1	86	57.9	0	1	90	0.00	30.001 
00:05	62.0	62.0	62.0	86	57.8	0	1	90	0.00	30.001 
00:10	61.8	61.8	61.8	86	57.6	0	2	90	0.00	30.001 
00:15	61.6	61.6	61.6	87	57.7	0	1	90	0.00	29.997 
00:20	61.5	61.5	61.5	87	57.6	0	3	90	0.00	29.997 
00:25	61.3	61.3	61.3	87	57.4	0	0	---	0.00	29.997 
00:30	61.2	61.2	61.2	87	57.3	0	1	90	0.00	29.997 
00:35	61.2	61.2	61.2	88	57.6	0	1	90	0.00	29.997 
00:40	61.0	61.0	61.0	88	57.4	0	1	90	0.00	29.997 
00:45	61.0	61.0	61.0	88	57.4	0	3	90	0.00	30.001 
00:50	61.0	61.0	61.0	88	57.4	0	2	90	0.00	30.001 
00:55	61.0	61.0	61.0	88	57.4	0	2	90	0.00	30.001 
01:00	61.0	61.0	61.0	88	57.4	0	2	90	0.00	30.000 
01:05	60.9	60.9	60.9	88	57.3	0	2	90	0.00	30.000 
01:10	60.9	60.9	60.9	88	57.3	0	2	90	0.00	30.000 
01:15	60.9	60.9	60.9	87	57.0	0	3	45	0.00	30.011 
01:20	60.7	60.7	60.7	87	56.8	0	1	45	0.00	30.011 
01:25	60.5	60.5	60.5	87	56.6	0	1	45	0.00	30.011 
01:30	60.5	60.5	60.5	88	56.9	0	4	45	0.00	30.011 
01:35	60.5	60.5	60.5	88	56.9	1	3	68	0.00	30.011 
01:40	60.5	60.5	60.5	88	56.9	0	2	68	0.00	30.011 
01:45	60.5	60.5	60.5	88	56.9	0	2	68	0.00	29.997 
01:50	60.4	60.4	60.4	88	56.8	0	1	68	0.00	29.997 
01:55	60.4	60.4	60.4	88	56.8	0	2	68	0.00	29.997 
02:00	60.2	60.2	60.2	88	56.6	0	1	68	0.00	30.000 
02:05	60.1	60.1	60.1	88	56.5	0	2	68	0.00	30.000 
02:10	60.1	60.1	60.1	88	56.5	0	2	68	0.00	30.000 
02:15	60.1	60.1	60.1	88	56.5	0	1	68	0.00	30.007 
02:20	60.1	60.1	60.1	88	56.5	0	3	68	0.00	30.007 
02:25	60.1	60.1	60.1	89	56.8	0	2	68	0.00	30.007 
02:30	60.1	60.1	60.1	89	56.8	0	1	68	0.00	30.011 
02:35	60.2	60.2	60.2	89	56.9	0	2	68	0.00	30.011 
02:40	60.2	60.2	60.2	89	56.9	0	2	68	0.00	30.011 
02:45	60.1	60.1	60.1	88	56.5	0	1	68	0.00	30.003 
02:50	60.1	60.1	60.1	88	56.5	0	2	68	0.00	30.003 
02:55	59.9	59.9	59.9	89	56.6	1	3	90	0.00	30.003 
03:00	59.9	59.9	59.9	89	56.6	0	3	90	0.00	29.990 
03:05	59.9	59.9	59.9	89	56.6	1	3	90	0.00	29.990 
03:10	59.8	59.8	59.8	89	56.5	1	3	90	0.00	29.990 
03:15	59.8	59.8	59.8	89	56.5	0	3	112	0.00	29.982 
03:20	59.6	59.6	59.6	89	56.4	0	1	112	0.00	29.982 
03:25	59.5	59.5	59.5	89	56.3	0	3	112	0.00	29.982 
03:30	59.5	59.5	59.5	90	56.6	0	1	112	0.00	29.970 
03:35	59.3	59.3	59.3	90	56.4	0	1	112	0.00	29.970 
03:40	59.3	59.3	59.3	90	56.4	0	1	112	0.00	29.970 
03:45	59.2	59.2	59.2	90	56.3	0	2	112	0.00	29.979 
03:50	59.0	59.0	59.0	90	56.1	0	2	112	0.00	29.979 
03:55	59.0	59.0	59.0	91	56.4	0	2	112	0.00	29.979 
04:00	59.0	59.0	59.0	91	56.4	0	2	112	0.00	29.983 
04:05	59.0	59.0	59.0	91	56.4	0	1	112	0.00	29.983 
04:10	59.2	59.2	59.2	91	56.6	0	2	112	0.00	29.983 
04:15	59.2	59.2	59.2	91	56.6	0	3	112	0.00	29.984 
04:20	59.3	59.3	59.3	91	56.7	0	1	90	0.00	29.984 
04:25	59.3	59.3	59.3	91	56.7	0	2	90	0.00	29.984 
04:30	59.3	59.3	59.3	91	56.7	0	2	90	0.00	29.968 
04:35	59.3	59.3	59.3	91	56.7	0	2	90	0.00	29.968 
04:40	59.2	59.2	59.2	91	56.6	0	1	90	0.00	29.968 
04:45	59.0	59.0	59.0	91	56.4	0	1	90	0.00	29.974 
04:50	59.0	59.0	59.0	91	56.4	0	2	90	0.00	29.974 
04:55	59.2	59.2	59.2	91	56.6	0	1	90	0.00	29.974 
05:00	59.2	59.2	59.2	91	56.6	0	3	90	0.00	29.969 
05:05	59.2	59.2	59.2	91	56.6	0	2	90	0.00	29.969 
05:10	59.2	59.2	59.2	91	56.6	0	1	90	0.00	29.969 
05:15	59.3	59.3	59.3	91	56.7	1	3	90	0.00	29.968 
05:20	59.3	59.3	59.3	91	56.7	1	3	90	0.00	29.968 
05:25	59.2	59.2	59.2	91	56.6	1	4	90	0.00	29.968 
05:30	59.3	59.3	59.3	91	56.7	1	3	90	0.00	29.968 
05:35	59.3	59.3	59.3	91	56.7	0	1	90	0.00	29.968 
05:40	59.3	59.3	59.3	91	56.7	0	2	90	0.00	29.968 
05:45	59.3	59.3	59.3	91	56.7	1	3	90	0.00	29.968 
05:50	59.3	59.3	59.3	91	56.7	1	3	68	0.00	29.968 
05:55	59.3	59.3	59.3	91	56.7	0	2	68	0.00	29.968 
06:00	59.3	59.3	59.3	91	56.7	0	1	68	0.00	29.962 
06:05	59.3	59.3	59.3	91	56.7	0	0	---	0.00	29.962 
06:10	59.2	59.2	59.2	91	56.6	0	1	68	0.00	29.962 
06:15	59.2	59.2	59.2	91	56.6	0	1	68	0.00	29.966 
06:20	59.2	59.2	59.2	91	56.6	0	1	68	0.00	29.966 
06:25	59.2	59.2	59.2	91	56.6	0	1	68	0.00	29.966 
06:30	59.2	59.2	59.2	91	56.6	0	1	68	0.00	29.973 
06:35	59.2	59.2	59.2	91	56.6	0	2	68	0.00	29.973 
06:40	59.2	59.2	59.2	91	56.6	0	1	68	0.00	29.973 
06:45	59.2	59.2	59.2	91	56.6	0	1	68	0.00	29.963 
06:50	59.2	59.2	59.2	91	56.6	0	3	68	0.00	29.963 
06:55	59.2	59.2	59.2	91	56.6	0	2	68	0.00	29.963 
07:00	59.2	59.2	59.2	91	56.6	0	2	68	0.00	29.958 
07:05	59.2	59.2	59.2	90	56.3	0	2	68	0.00	29.958 
07:10	59.0	59.0	59.0	90	56.1	0	1	68	0.00	29.958 
07:15	59.0	59.0	59.0	90	56.1	0	2	68	0.00	29.967 
07:20	59.0	59.0	59.0	90	56.1	0	1	68	0.00	29.967 
07:25	59.0	59.0	59.0	90	56.1	0	2	68	0.00	29.967 
07:30	59.0	59.0	59.0	90	56.1	0	2	68	0.00	29.966 
07:35	59.0	59.0	59.0	90	56.1	0	2	68	0.00	29.966 
07:40	58.9	58.9	58.9	90	56.0	0	1	68	0.00	29.966 
07:45	58.9	58.9	58.9	90	56.0	1	2	68	0.00	29.960 
07:50	59.0	59.0	59.0	89	55.8	1	3	68	0.00	29.960 
07:55	59.0	59.0	59.0	89	55.8	0	3	68	0.00	29.960 
08:00	59.0	59.0	59.0	89	55.8	0	2	68	0.00	29.955 
08:05	59.0	59.0	59.0	89	55.8	0	2	68	0.00	29.955 
08:10	59.0	59.0	59.0	89	55.8	1	3	68	0.00	29.955 
08:15	59.0	59.0	59.0	89	55.8	1	3	68	0.00	29.938 
08:20	59.0	59.0	59.0	88	55.4	0	2	68	0.00	29.938 
08:25	59.0	59.0	59.0	88	55.4	0	3	68	0.00	29.938 
08:30	59.0	59.0	59.0	88	55.4	0	2	68	0.00	29.945 
08:35	59.0	59.0	59.0	88	55.4	0	6	112	0.00	29.945 
08:40	59.2	59.2	59.2	88	55.6	1	5	112	0.00	29.945 
08:45	59.2	59.2	59.2	88	55.6	1	4	112	0.00	29.950 
08:50	59.2	59.2	59.2	88	55.6	0	3	112	0.00	29.950 
08:55	59.2	59.2	59.2	88	55.6	0	2	112	0.00	29.950 
09:00	59.2	59.2	59.2	88	55.6	0	2	112	0.00	29.960 
09:05	59.2	59.2	59.2	88	55.6	0	2	112	0.00	29.960 
09:10	59.2	59.2	59.2	88	55.6	1	3	112	0.00	29.960 
09:15	59.2	59.2	59.2	88	55.6	1	3	90	0.00	29.958 
09:20	59.3	59.3	59.3	87	55.4	1	4	90	0.00	29.958 
09:25	59.3	59.3	59.3	87	55.4	0	3	90	0.00	29.958 
09:30	59.5	59.5	59.5	87	55.6	1	4	90	0.00	29.940 
09:35	59.6	59.6	59.6	86	55.4	2	5	90	0.00	29.940 
09:40	59.6	59.6	59.6	86	55.4	1	4	112	0.00	29.940 
09:45	59.8	59.8	59.8	86	55.6	2	5	90	0.00	29.934 
09:50	59.8	59.8	59.8	85	55.3	1	5	112	0.00	29.934 
09:55	59.9	59.9	59.9	85	55.4	1	3	112	0.00	29.934 
10:00	59.9	59.9	59.9	85	55.4	1	5	112	0.00	29.912 
10:05	59.9	59.9	59.9	85	55.4	1	3	112	0.00	29.912 
10:10	60.1	60.1	60.1	85	55.6	1	3	112	0.00	29.912 
10:15	60.1	60.1	60.1	85	55.6	1	3	112	0.00	29.922 
10:20	60.1	60.1	60.1	85	55.6	1	5	112	0.00	29.922 
10:25	60.2	60.2	60.2	85	55.7	2	7	112	0.00	29.922 
10:30	60.2	60.2	60.2	84	55.3	1	4	90	0.00	29.928 
10:35	60.2	60.2	60.2	84	55.3	2	6	90	0.00	29.928 
10:40	60.4	60.4	60.4	84	55.5	1	4	135	0.00	29.928 
10:45	60.4	60.4	60.4	84	55.5	0	2	135	0.00	29.935 
10:50	60.4	60.4	60.4	84	55.5	1	4	45	0.00	29.935 
10:55	60.4	60.4	60.4	84	55.5	0	3	45	0.00	29.935 
11:00	60.5	60.5	60.5	84	55.6	1	6	112	0.00	29.924 
11:05	60.5	60.5	60.5	84	55.6	1	4	90	0.00	29.924 
11:10	60.5	60.5	60.5	84	55.6	1	4	90	0.00	29.924 
11:15	60.5	60.5	60.5	84	55.6	1	5	90	0.00	29.930 
11:20	60.5	60.5	60.5	83	55.3	0	2	68	0.00	29.930 
11:25	60.5	60.5	60.5	83	55.3	1	4	68	0.00	29.930 
11:30	60.7	60.7	60.7	83	55.5	0	2	135	0.00	29.922 
11:35	60.7	60.7	60.7	83	55.5	1	4	68	0.00	29.922 
11:40	60.7	60.7	60.7	83	55.5	1	2	90	0.00	29.922 
11:45	60.9	60.9	60.9	83	55.7	1	4	90	0.00	29.920 
11:50	60.9	60.9	60.9	83	55.7	1	5	90	0.00	29.920 
11:55	61.0	61.0	61.0	83	55.8	1	4	68	0.00	29.920 
12:00	61.2	61.2	61.2	83	56.0	1	7	90	0.00	29.909 
12:05	61.2	61.2	61.2	82	55.7	1	5	90	0.00	29.909 
12:10	61.2	61.2	61.2	82	55.7	1	3	112	0.00	29.909 
12:15	61.2	61.2	61.2	82	55.7	2	7	90	0.00	29.899 
12:20	61.3	61.3	61.3	82	55.8	2	4	112	0.00	29.899 
12:25	61.5	61.5	61.5	81	55.6	1	6	90	0.00	29.899 
12:30	61.5	61.5	61.5	81	55.6	2	5	112	0.00	29.890 
12:35	61.6	61.6	61.6	81	55.7	2	6	90	0.00	29.890 
12:40	61.6	61.6	61.6	81	55.7	1	4	90	0.00	29.890 
12:45	61.6	61.6	61.6	81	55.7	1	5	45	0.00	29.905 
12:50	61.6	61.6	61.6	81	55.7	1	6	90	0.00	29.905 
12:55	61.8	61.8	61.8	81	55.9	2	9	90	0.00	29.905 
13:00	61.8	61.8	61.8	81	55.9	0	2	90	0.00	29.875 
13:05	61.8	61.8	61.8	81	55.9	1	3	68	0.00	29.875 
13:10	62.0	62.0	62.0	80	55.8	1	4	90	0.00	29.875 
13:15	62.0	62.0	62.0	80	55.8	1	4	90	0.00	29.867 
13:20	62.0	62.0	62.0	80	55.8	1	3	90	0.00	29.867 
13:25	62.0	62.0	62.0	80	55.8	2	5	90	0.00	29.867 
13:30	62.0	62.0	62.0	80	55.8	1	3	90	0.00	29.863 
13:35	62.0	62.0	62.0	80	55.8	1	4	90	0.00	29.863 
13:40	62.0	62.0	62.0	80	55.8	1	4	90	0.00	29.863 
13:45	62.1	62.1	62.1	80	55.9	1	3	90	0.00	29.863 
13:50	62.1	62.1	62.1	80	55.9	1	3	90	0.00	29.863 
13:55	62.3	62.3	62.3	79	55.7	1	6	90	0.00	29.863 
14:00	62.3	62.3	62.3	79	55.7	1	4	90	0.00	29.845 
14:05	62.4	62.4	62.4	78	55.4	1	6	112	0.00	29.845 
14:10	62.4	62.4	62.4	78	55.4	1	5	90	0.00	29.845 
14:15	62.3	62.3	62.3	78	55.3	1	4	68	0.00	29.837 
14:20	62.3	62.3	62.3	82	56.7	2	6	112	0.00	29.837 
14:25	62.3	62.3	62.3	78	55.3	1	4	90	0.00	29.837 
14:30	62.1	62.1	62.1	78	55.2	2	6	112	0.00	29.842 
14:35	62.1	62.1	62.1	78	55.2	1	5	90	0.00	29.842 
14:40	62.0	62.0	62.0	78	55.1	2	6	90	0.00	29.842 
14:45	62.0	62.0	62.0	78	55.1	2	5	90	0.00	29.842 
14:50	62.0	62.0	62.0	78	55.1	1	5	135	0.00	29.842 
14:55	62.0	62.0	62.0	78	55.1	1	4	90	0.00	29.842 
15:00	62.0	62.0	62.0	78	55.1	1	4	22	0.00	29.824 
15:05	61.8	61.8	61.8	77	54.5	1	4	112	0.00	29.824 
15:10	61.8	61.8	61.8	77	54.5	1	4	90	0.00	29.824 
15:15	61.8	61.8	61.8	77	54.5	1	4	112	0.00	29.825 
15:20	61.8	61.8	61.8	77	54.5	2	5	112	0.00	29.825 
15:25	61.8	61.8	61.8	77	54.5	1	3	112	0.00	29.825 
15:30	61.8	61.8	61.8	77	54.5	1	3	112	0.00	29.812 
15:35	61.8	61.8	61.8	77	54.5	2	4	112	0.00	29.812 
15:40	61.8	61.8	61.8	77	54.5	1	5	90	0.00	29.812 
15:45	61.8	61.8	61.8	77	54.5	1	4	90	0.00	29.818 
15:50	61.8	61.8	61.8	77	54.5	2	5	90	0.00	29.818 
15:55	61.8	61.8	61.8	77	54.5	2	6	112	0.00	29.818 
16:00	61.8	61.8	61.8	77	54.5	1	3	135	0.00	29.824 
16:05	61.6	61.6	61.6	77	54.3	1	5	68	0.00	29.824 
16:10	61.6	61.6	61.6	77	54.3	2	5	112	0.00	29.824 
16:15	61.6	61.6	61.6	77	54.3	1	3	90	0.00	29.826 
16:20	61.5	61.5	61.5	77	54.2	1	8	112	0.00	29.826 
16:25	61.5	61.5	61.5	77	54.2	1	4	112	0.00	29.826 
16:30	61.3	61.3	61.3	78	54.4	1	4	112	0.00	29.833 
16:35	61.3	61.3	61.3	78	54.4	1	5	68	0.00	29.833 
16:40	61.3	61.3	61.3	78	54.4	1	4	90	0.00	29.833 
16:45	61.2	61.2	61.2	79	54.6	0	2	112	0.00	29.814 
16:50	61.0	61.0	61.0	80	54.8	0	2	112	0.00	29.814 
16:55	60.7	60.7	60.7	81	54.8	2	6	112	0.00	29.814 
17:00	60.5	60.5	60.5	81	54.6	1	3	135	0.00	29.799 
17:05	60.2	60.2	60.2	82	54.7	2	5	90	0.00	29.799 
17:10	60.1	60.1	60.1	83	54.9	1	2	135	0.00	29.799 
17:15	59.9	59.9	59.9	84	55.0	1	3	90	0.00	29.807 
17:20	59.6	59.6	59.6	84	54.8	0	2	90	0.00	29.807 
17:25	59.6	59.6	59.6	84	54.8	1	3	90	0.00	29.807 
17:30	59.5	59.5	59.5	84	54.7	1	3	90	0.00	29.810 
17:35	59.3	59.3	59.3	84	54.5	0	2	90	0.00	29.810 
17:40	59.3	59.3	59.3	84	54.5	0	3	90	0.00	29.810 
17:45	59.2	59.2	59.2	84	54.4	1	3	90	0.00	29.814 
17:50	59.3	59.3	59.3	84	54.5	1	4	135	0.00	29.814 
17:55	59.3	59.3	59.3	84	54.5	1	5	135	0.00	29.814 
18:00	59.3	59.3	59.3	84	54.5	0	2	135	0.00	29.801 
18:05	59.3	59.3	59.3	84	54.5	0	2	135	0.00	29.801 
18:10	59.2	59.2	59.2	84	54.4	0	2	135	0.00	29.801 
18:15	59.2	59.2	59.2	84	54.4	0	2	135	0.00	29.796 
18:20	59.2	59.2	59.2	84	54.4	0	2	90	0.00	29.796 
18:25	59.0	59.0	59.0	84	54.2	1	3	112	0.00	29.796 
18:30	59.0	59.0	59.0	84	54.2	0	1	112	0.00	29.789 
18:35	59.0	59.0	59.0	84	54.2	0	2	112	0.00	29.789 
18:40	59.0	59.0	59.0	84	54.2	1	4	112	0.00	29.789 
18:45	59.0	59.0	59.0	84	54.2	1	4	90	0.00	29.785 
18:50	59.2	59.2	59.2	84	54.4	1	4	90	0.00	29.785 
18:55	59.2	59.2	59.2	83	54.0	1	3	135	0.00	29.785 
19:00	59.0	59.0	59.0	83	53.8	1	3	135	0.00	29.769 
19:05	59.0	59.0	59.0	83	53.8	1	4	112	0.00	29.769 
19:10	59.0	59.0	59.0	83	53.8	1	3	112	0.00	29.769 
19:15	59.0	59.0	59.0	83	53.8	1	4	112	0.00	29.782 
19:20	59.0	59.0	59.0	83	53.8	1	5	90	0.00	29.782 
19:25	59.0	59.0	59.0	83	53.8	1	3	112	0.00	29.782 
19:30	59.0	59.0	59.0	82	53.5	1	4	68	0.00	29.777 
19:35	58.9	58.9	58.9	82	53.4	1	5	112	0.00	29.777 
19:40	59.0	59.0	59.0	82	53.5	1	5	112	0.00	29.777 
19:45	59.0	59.0	59.0	82	53.5	1	4	112	0.00	29.758 
19:50	59.0	59.0	59.0	82	53.5	1	6	112	0.00	29.758 
19:55	59.0	59.0	59.0	82	53.5	1	4	90	0.00	29.758 
20:00	59.0	59.0	59.0	82	53.5	1	4	135	0.00	29.764 
20:05	59.0	59.0	59.0	81	53.2	1	5	112	0.00	29.764 
20:10	59.0	59.0	59.0	81	53.2	2	5	112	0.00	29.764 
20:15	59.2	59.2	59.2	81	53.4	1	6	112	0.00	29.751 
20:20	59.2	59.2	59.2	81	53.4	1	3	135	0.00	29.751 
20:25	59.2	59.2	59.2	81	53.4	1	5	135	0.00	29.751 
20:30	59.2	59.2	59.2	81	53.4	1	4	135	0.00	29.761 
20:35	59.2	59.2	59.2	81	53.4	1	3	90	0.00	29.761 
20:40	59.2	59.2	59.2	81	53.4	1	3	90	0.00	29.761 
20:45	59.2	59.2	59.2	81	53.4	1	3	90	0.00	29.741 
20:50	59.2	59.2	59.2	81	53.4	1	4	90	0.00	29.741 
20:55	59.2	59.2	59.2	81	53.4	1	4	90	0.00	29.741 
21:00	59.2	59.2	59.2	81	53.4	1	4	135	0.00	29.719 
21:05	59.2	59.2	59.2	81	53.4	1	6	90	0.00	29.719 
21:10	59.2	59.2	59.2	81	53.4	1	4	112	0.00	29.719 
21:15	59.3	59.3	59.3	80	53.1	1	6	135	0.00	29.722 
21:20	59.3	59.3	59.3	80	53.1	2	10	112	0.00	29.722 
21:25	59.5	59.5	59.5	79	53.0	1	6	90	0.00	29.722 
21:30	59.6	59.6	59.6	78	52.7	1	4	112	0.00	29.697 
21:35	59.8	59.8	59.8	78	52.9	2	6	112	0.00	29.697 
21:40	59.9	59.9	59.9	77	52.7	2	6	112	0.00	29.697 
21:45	60.1	60.1	60.1	77	52.9	2	5	68	0.00	29.689 
21:50	60.2	60.2	60.2	76	52.6	2	7	135	0.00	29.689 
21:55	60.4	60.4	60.4	76	52.8	1	3	112	0.00	29.689 
22:00	60.5	60.5	60.5	74	52.2	3	11	90	0.00	29.704 
22:05	60.7	60.7	60.7	73	52.0	3	6	112	0.00	29.704 
22:10	61.0	61.0	61.0	72	51.9	3	11	90	0.00	29.704 
22:15	61.2	61.2	61.2	71	51.7	3	10	90	0.00	29.645 
22:20	61.3	61.3	61.3	71	51.8	3	7	112	0.00	29.645 
22:25	61.6	61.6	61.6	70	51.7	3	9	112	0.00	29.645 
22:30	61.8	61.8	61.8	69	51.5	3	13	90	0.00	29.672 
22:35	61.8	61.8	61.8	69	51.5	3	9	90	0.00	29.672 
22:40	62.0	62.0	62.0	69	51.7	3	5	112	0.00	29.672 
22:45	62.0	62.0	62.0	69	51.7	2	5	112	0.00	29.656 
22:50	62.0	62.0	62.0	69	51.7	1	4	112	0.00	29.656 
22:55	62.0	62.0	62.0	69	51.7	2	7	90	0.00	29.656 
23:00	62.0	62.0	62.0	69	51.7	2	3	90	0.00	29.658 
23:05	62.0	62.0	62.0	69	51.7	3	9	112	0.00	29.658 
23:10	61.8	61.8	61.8	68	51.1	2	6	90	0.00	29.658 
23:15	61.8	61.8	61.8	69	51.5	2	5	90	0.00	29.636 
23:20	61.6	61.6	61.6	69	51.3	2	5	112	0.00	29.636 
23:25	61.5	61.5	61.5	69	51.2	2	6	90	0.00	29.636 
23:30	61.5	61.5	61.5	69	51.2	3	9	90	0.00	29.637 
23:35	61.5	61.5	61.5	69	51.2	3	6	112	0.00	29.637 
23:40	61.5	61.5	61.5	69	51.2	2	5	90	0.00	29.637 
23:45	61.3	61.3	61.3	69	51.0	2	5	112	0.00	29.635 
23:50	61.3	61.3	61.3	69	51.0	3	6	90	0.00	29.635 
23:55	61.3	61.3	61.3	70	51.4	2	5	90	0.00	29.635 

CoCoRaHS
IN-AL-39
A2 Web Hosting
Creative Commons License
GoDaddy
search engine by freefind advanced

loaded 2018-11-20 08:41:40 • last modified 2010-11-18 10:43:29
Privacy PolicyDisclaimer
• wx.awcolley.com is powered by PmWiki v.2002016 •
• all content (unless otherwise noted) © 2018 A W Colley